createdAt,value
2019-05-25T00:19:45.138Z,10.90
2019-05-25T00:49:47.745Z,20.62
2019-05-25T01:19:50.359Z,11.93
2019-05-25T01:49:52.976Z,11.45
2019-05-25T02:19:55.610Z,12.98
2019-05-25T02:49:58.209Z,12.68
2019-05-25T03:20:00.821Z,13.72
2019-05-25T03:50:04.262Z,14.00
2019-05-25T04:20:07.177Z,12.80
2019-05-25T04:50:10.042Z,16.93
2019-05-25T05:20:15.355Z,14.18
2019-05-25T05:50:17.956Z,12.40
2019-05-25T06:20:20.612Z,13.25
2019-05-25T06:50:23.207Z,7.53
2019-05-25T07:20:25.822Z,10.18
2019-05-25T07:50:28.431Z,10.18
2019-05-25T08:20:31.184Z,12.13
2019-05-25T08:50:38.103Z,11.80
2019-05-25T09:20:38.135Z,8.53
2019-05-25T09:50:41.746Z,6.05
2019-05-25T10:20:45.032Z,9.13
2019-05-25T10:50:47.929Z,6.92
2019-05-25T11:20:50.569Z,6.50
2019-05-25T11:50:54.188Z,6.12
2019-05-25T12:20:57.742Z,9.85
2019-05-25T12:51:00.437Z,6.40
2019-05-25T13:21:03.081Z,7.78
2019-05-25T13:51:06.283Z,7.85
2019-05-25T14:21:10.005Z,7.08
2019-05-25T14:51:12.710Z,5.00
2019-05-25T15:21:15.382Z,4.25
2019-05-25T15:51:18.069Z,5.92
2019-05-25T16:21:20.776Z,6.08
2019-05-25T16:51:23.661Z,5.72
2019-05-25T17:21:26.375Z,5.50
2019-05-25T17:51:29.464Z,4.92
2019-05-25T18:21:32.073Z,5.05
2019-05-25T18:51:34.758Z,8.23
2019-05-25T19:21:37.454Z,11.10
2019-05-25T19:51:40.241Z,12.43
2019-05-25T20:21:44.334Z,10.75
2019-05-25T20:51:47.277Z,14.63
2019-05-25T21:21:50.769Z,10.38
2019-05-25T21:51:53.845Z,13.55
2019-05-25T22:21:56.477Z,9.13
2019-05-25T22:51:59.147Z,10.53
2019-05-25T23:22:01.793Z,9.25
2019-05-25T23:52:04.400Z,11.50
